Time;durP1;ratioP1;P1;durP2;ratioP2;P2;SDS_P1;SDS_P2;PMS_P1;PMS_P2;Temp;Humidity;BMP_temperature;BMP_pressure;BME280_temperature;BME280_humidity;BME280_pressure;Samples;Min_cycle;Max_cycle;Signal;HPM_P1;HPM_P2
2023/04/21 00:02:05;;;;;;;16.33;14.63;;;13.30;56.90;;;;;;5029443;28;20222;-46
2023/04/21 00:04:32;;;;;;;16.33;14.63;;;13.30;57.00;;;;;;5030505;28;20105;-47
2023/04/21 00:07:03;;;;;;;19.10;15.77;;;13.30;57.10;;;;;;5047332;28;20033;-45
2023/04/21 00:09:29;;;;;;;17.98;15.77;;;13.30;57.40;;;;;;5050309;28;20036;-48
2023/04/21 00:11:58;;;;;;;17.65;15.65;;;13.20;57.20;;;;;;5036924;28;20121;-47
2023/04/21 00:14:25;;;;;;;17.48;15.75;;;13.20;57.50;;;;;;5041822;28;20048;-46
2023/04/21 00:16:54;;;;;;;17.67;15.80;;;13.20;57.50;;;;;;5050416;28;20112;-48
2023/04/21 00:19:22;;;;;;;18.20;16.30;;;13.20;57.70;;;;;;5041113;28;20493;-46
2023/04/21 00:21:50;;;;;;;18.90;16.85;;;13.10;57.70;;;;;;5034233;28;20563;-46
2023/04/21 00:24:17;;;;;;;19.25;16.08;;;13.10;57.70;;;;;;5037459;28;20037;-47
2023/04/21 00:26:44;;;;;;;19.75;17.23;;;13.10;57.60;;;;;;5033763;28;20037;-46
2023/04/21 00:29:10;;;;;;;20.15;17.25;;;13.10;57.90;;;;;;5038950;28;20140;-48
2023/04/21 00:31:42;;;;;;;19.73;16.98;;;13.00;58.10;;;;;;5019949;28;20036;-47
2023/04/21 00:34:11;;;;;;;20.85;17.70;;;13.10;58.80;;;;;;5015057;28;20053;-46
2023/04/21 00:36:38;;;;;;;22.25;19.50;;;13.10;58.30;;;;;;5027228;28;20048;-48
2023/04/21 00:39:05;;;;;;;21.63;18.73;;;13.00;58.30;;;;;;5050133;28;20056;-45
2023/04/21 00:41:34;;;;;;;22.00;18.42;;;13.00;58.40;;;;;;5049174;28;20390;-50
2023/04/21 00:44:07;;;;;;;21.85;19.50;;;13.00;58.50;;;;;;5015214;28;20068;-46
2023/04/21 00:46:34;;;;;;;21.77;19.45;;;13.00;59.20;;;;;;5041559;28;20033;-47
2023/04/21 00:49:06;;;;;;;22.38;19.48;;;13.00;58.60;;;;;;5049976;28;20386;-46
2023/04/21 00:51:34;;;;;;;22.23;19.38;;;13.10;59.00;;;;;;5031918;28;20171;-46
2023/04/21 00:54:08;;;;;;;24.98;20.85;;;13.00;58.50;;;;;;5012108;28;20049;-45
2023/04/21 00:56:35;;;;;;;22.67;19.43;;;13.00;59.00;;;;;;5048284;28;20493;-47
2023/04/21 00:59:02;;;;;;;22.65;19.85;;;13.00;58.40;;;;;;5032091;28;20485;-47
2023/04/21 01:01:33;;;;;;;21.98;19.60;;;13.00;58.60;;;;;;5040547;28;20041;-46
2023/04/21 01:04:00;;;;;;;21.05;18.83;;;13.00;58.60;;;;;;5012488;28;20116;-45
2023/04/21 01:06:35;;;;;;;21.15;18.58;;;13.00;58.60;;;;;;5044387;28;20037;-49
2023/04/21 01:09:03;;;;;;;22.02;18.75;;;13.00;59.30;;;;;;5054095;28;20041;-46
2023/04/21 01:11:31;;;;;;;23.67;19.55;;;13.00;58.80;;;;;;5024563;28;20073;-45
2023/04/21 01:14:01;;;;;;;24.00;20.13;;;13.00;58.80;;;;;;5020486;28;20444;-46
2023/04/21 01:16:28;;;;;;;22.15;18.45;;;13.00;59.10;;;;;;5032897;28;20072;-47
2023/04/21 01:18:55;;;;;;;20.23;17.60;;;13.00;59.00;;;;;;5053380;28;20393;-48
2023/04/21 01:21:22;;;;;;;20.50;18.15;;;13.00;59.10;;;;;;5033012;28;20048;-52
2023/04/21 01:23:49;;;;;;;22.45;19.25;;;13.00;59.20;;;;;;5024401;28;20030;-46
2023/04/21 01:26:18;;;;;;;21.00;18.08;;;13.00;59.20;;;;;;5032652;28;20036;-46
2023/04/21 01:28:46;;;;;;;21.77;18.42;;;13.00;59.30;;;;;;5036862;28;20044;-45
2023/04/21 01:31:15;;;;;;;21.75;18.08;;;13.00;59.30;;;;;;5014178;28;20072;-46
2023/04/21 01:33:42;;;;;;;24.25;19.63;;;13.00;59.20;;;;;;5034303;28;20628;-45
2023/04/21 01:36:09;;;;;;;24.83;19.05;;;13.00;59.20;;;;;;5020639;28;20037;-49
2023/04/21 01:38:44;;;;;;;27.58;19.73;;;13.00;59.30;;;;;;5033781;28;20471;-46
2023/04/21 01:41:11;;;;;;;23.42;18.83;;;13.00;60.10;;;;;;5053143;28;20124;-46
2023/04/21 01:43:38;;;;;;;23.92;20.23;;;13.00;59.10;;;;;;5023314;28;20041;-49
2023/04/21 01:46:07;;;;;;;23.73;20.38;;;13.00;59.10;;;;;;5041337;28;20048;-49
2023/04/21 01:48:36;;;;;;;26.48;20.60;;;13.00;59.50;;;;;;5052758;28;20033;-46
2023/04/21 01:51:05;;;;;;;23.08;19.48;;;12.90;59.30;;;;;;5035035;28;20064;-46
2023/04/21 01:53:31;;;;;;;24.38;21.10;;;13.00;59.60;;;;;;5034407;28;20462;-47
2023/04/21 01:56:00;;;;;;;25.92;21.38;;;13.00;59.50;;;;;;5047604;28;20063;-50
2023/04/21 01:58:31;;;;;;;26.92;20.77;;;13.00;59.60;;;;;;5026519;28;20060;-50
2023/04/21 02:01:01;;;;;;;29.67;22.35;;;12.90;59.70;;;;;;5021149;28;20069;-46
2023/04/21 02:03:27;;;;;;;25.50;21.27;;;13.00;59.80;;;;;;5036613;28;20042;-46
2023/04/21 02:06:02;;;;;;;26.73;20.63;;;13.00;60.00;;;;;;5041992;28;20044;-46
2023/04/21 02:08:29;;;;;;;25.92;21.00;;;13.00;59.90;;;;;;5034245;28;20504;-49
2023/04/21 02:10:56;;;;;;;26.30;21.45;;;13.00;60.00;;;;;;5034513;28;20103;-51
2023/04/21 02:13:25;;;;;;;26.50;20.83;;;13.00;59.90;;;;;;4998904;28;20081;-49
2023/04/21 02:15:54;;;;;;;26.02;21.05;;;13.00;60.10;;;;;;5034566;28;20056;-46
2023/04/21 02:18:38;;;;;;;24.90;20.67;;;13.00;60.10;;;;;;5032378;28;20536;-49
2023/04/21 02:21:06;;;;;;;28.08;21.92;;;13.00;60.10;;;;;;5029987;28;20476;-48
2023/04/21 02:23:34;;;;;;;27.83;21.77;;;13.00;60.20;;;;;;5031069;28;20048;-50
2023/04/21 02:26:00;;;;;;;27.38;22.15;;;13.00;60.20;;;;;;5034479;28;20037;-45
2023/04/21 02:28:31;;;;;;;28.35;21.90;;;13.00;60.40;;;;;;5036234;28;20054;-46
2023/04/21 02:30:57;;;;;;;27.77;22.20;;;13.00;60.50;;;;;;5033606;28;20132;-50
2023/04/21 02:33:24;;;;;;;31.02;22.73;;;13.00;60.70;;;;;;5042253;28;20397;-47
2023/04/21 02:35:51;;;;;;;28.77;23.52;;;13.00;60.40;;;;;;5035720;28;20040;-45
2023/04/21 02:38:17;;;;;;;25.45;21.02;;;13.00;60.40;;;;;;5034278;28;20055;-47
2023/04/21 02:40:44;;;;;;;29.55;23.08;;;13.00;60.50;;;;;;5050419;28;20041;-47
2023/04/21 02:43:13;;;;;;;28.80;21.90;;;13.00;60.50;;;;;;5018745;28;20048;-45
2023/04/21 02:45:39;;;;;;;25.65;20.80;;;13.00;60.80;;;;;;5030487;28;20049;-45
2023/04/21 02:48:06;;;;;;;27.23;22.50;;;13.00;60.70;;;;;;5033703;28;20037;-51
2023/04/21 02:50:33;;;;;;;29.02;22.08;;;13.00;60.80;;;;;;5032872;28;20052;-47
2023/04/21 02:53:00;;;;;;;27.98;21.98;;;13.00;60.80;;;;;;5029191;28;20612;-45
2023/04/21 02:55:27;;;;;;;28.17;22.17;;;13.00;60.80;;;;;;5042669;28;20131;-47
2023/04/21 02:57:55;;;;;;;26.45;21.45;;;13.00;60.70;;;;;;5033730;28;20040;-44
2023/04/21 03:00:23;;;;;;;26.67;22.30;;;13.00;60.80;;;;;;5033392;28;20045;-46
2023/04/21 03:02:52;;;;;;;28.25;21.75;;;12.90;60.60;;;;;;5023241;28;20041;-45
2023/04/21 03:05:20;;;;;;;26.92;21.67;;;12.90;60.30;;;;;;5015665;28;20045;-46
2023/04/21 03:07:46;;;;;;;27.15;21.38;;;12.80;60.20;;;;;;5050649;28;20041;-45
2023/04/21 03:10:13;;;;;;;27.73;22.00;;;12.70;60.10;;;;;;5033343;28;20045;-45
2023/04/21 03:12:42;;;;;;;28.63;22.55;;;12.70;60.00;;;;;;5020755;28;20053;-46
2023/04/21 03:15:10;;;;;;;28.65;22.33;;;12.60;60.00;;;;;;5022035;28;20049;-45
2023/04/21 03:17:42;;;;;;;29.02;21.02;;;12.50;60.00;;;;;;5033219;28;20053;-45
2023/04/21 03:20:11;;;;;;;25.35;20.10;;;12.50;60.60;;;;;;5033243;28;20048;-46
2023/04/21 03:22:38;;;;;;;25.75;21.02;;;12.40;60.40;;;;;;5015280;28;20049;-45
2023/04/21 03:25:06;;;;;;;25.88;20.13;;;12.30;60.20;;;;;;5046400;28;20476;-45
2023/04/21 03:27:33;;;;;;;22.85;18.80;;;12.30;60.20;;;;;;5050681;28;20033;-44
2023/04/21 03:30:00;;;;;;;21.98;17.80;;;12.10;59.90;;;;;;5019074;28;20045;-46
2023/04/21 03:32:31;;;;;;;22.88;17.40;;;12.00;60.10;;;;;;5028949;28;20032;-46
2023/04/21 03:34:58;;;;;;;23.23;17.27;;;12.00;60.20;;;;;;5033148;28;20445;-44
2023/04/21 03:37:25;;;;;;;22.40;17.67;;;11.80;60.10;;;;;;5042735;28;20460;-47
2023/04/21 03:39:53;;;;;;;21.23;16.63;;;11.80;60.10;;;;;;5050874;28;20037;-44
2023/04/21 03:42:20;;;;;;;18.33;14.82;;;11.70;60.00;;;;;;5009512;28;20038;-46
2023/04/21 03:44:48;;;;;;;15.95;13.50;;;11.60;59.80;;;;;;5041576;28;20069;-45
2023/04/21 03:47:16;;;;;;;16.00;13.23;;;11.60;59.70;;;;;;5032816;28;20048;-46
2023/04/21 03:49:42;;;;;;;17.25;13.48;;;11.50;59.90;;;;;;5044321;28;20422;-47
2023/04/21 03:52:14;;;;;;;17.58;14.30;;;11.40;60.20;;;;;;5038585;28;20779;-46
2023/04/21 03:54:43;;;;;;;19.33;15.65;;;11.30;60.30;;;;;;5036554;28;20092;-46
2023/04/21 03:57:10;;;;;;;19.88;17.10;;;11.40;60.70;;;;;;5042371;28;20519;-45
2023/04/21 03:59:36;;;;;;;20.38;16.75;;;11.30;61.10;;;;;;5038168;28;20056;-47
2023/04/21 04:02:03;;;;;;;20.25;16.85;;;11.30;61.30;;;;;;5033932;28;20041;-46
2023/04/21 04:04:35;;;;;;;20.27;17.10;;;11.30;61.60;;;;;;5029896;28;20064;-46
2023/04/21 04:07:07;;;;;;;25.48;18.90;;;11.30;61.70;;;;;;5046340;28;20064;-45
2023/04/21 04:09:34;;;;;;;21.75;17.60;;;11.40;61.80;;;;;;5050339;28;20303;-46
2023/04/21 04:12:02;;;;;;;23.88;18.25;;;11.40;61.80;;;;;;5036411;28;20091;-44
2023/04/21 04:14:29;;;;;;;20.13;17.20;;;11.40;61.80;;;;;;5042988;28;20044;-45
2023/04/21 04:16:58;;;;;;;21.23;17.23;;;11.40;61.50;;;;;;5050605;28;20048;-46
2023/04/21 04:19:32;;;;;;;21.83;15.27;;;11.40;61.20;;;;;;5050949;28;20033;-44
2023/04/21 04:22:00;;;;;;;18.73;14.35;;;11.40;61.10;;;;;;5034204;28;20549;-46
2023/04/21 04:24:27;;;;;;;18.88;15.52;;;11.30;60.50;;;;;;5046771;28;20045;-44
2023/04/21 04:26:53;;;;;;;17.20;14.52;;;11.30;60.40;;;;;;5050528;28;20028;-44
2023/04/21 04:29:21;;;;;;;19.58;15.55;;;11.20;60.40;;;;;;5031354;28;20038;-44
2023/04/21 04:31:49;;;;;;;20.20;15.70;;;11.10;60.50;;;;;;5034918;28;20045;-48
2023/04/21 04:34:16;;;;;;;19.55;14.82;;;11.10;60.40;;;;;;5023720;28;20516;-45
2023/04/21 04:36:43;;;;;;;21.15;16.08;;;11.00;60.30;;;;;;5030349;28;20556;-45
2023/04/21 04:39:11;;;;;;;19.95;15.45;;;10.90;60.40;;;;;;5026654;28;20050;-45
2023/04/21 04:41:38;;;;;;;17.02;13.82;;;10.90;60.50;;;;;;5042161;28;20125;-45
2023/04/21 04:44:04;;;;;;;19.88;15.68;;;10.80;60.50;;;;;;5028951;28;20486;-44
2023/04/21 04:46:31;;;;;;;20.60;15.95;;;10.80;60.60;;;;;;5019542;28;20057;-45
2023/04/21 04:49:00;;;;;;;21.13;15.82;;;10.70;60.80;;;;;;5034212;28;20041;-45
2023/04/21 04:51:26;;;;;;;21.85;16.23;;;10.70;61.00;;;;;;5025741;28;20060;-45
2023/04/21 04:53:53;;;;;;;23.48;17.60;;;10.70;61.20;;;;;;5039857;28;20038;-44
2023/04/21 04:56:20;;;;;;;23.50;17.42;;;10.60;61.40;;;;;;5035612;28;20049;-45
2023/04/21 04:58:47;;;;;;;21.10;16.92;;;10.60;61.70;;;;;;5041552;28;20050;-44
2023/04/21 05:01:15;;;;;;;21.05;16.88;;;10.60;61.80;;;;;;5034187;28;20064;-44
2023/04/21 05:03:43;;;;;;;22.10;16.65;;;10.60;62.00;;;;;;5037481;28;20041;-46
2023/04/21 05:06:10;;;;;;;22.92;17.67;;;10.60;62.00;;;;;;5022146;28;20068;-43
2023/04/21 05:08:39;;;;;;;24.15;18.23;;;10.60;62.20;;;;;;5049672;28;20045;-45
2023/04/21 05:11:07;;;;;;;23.35;17.65;;;10.60;62.20;;;;;;5031839;28;20057;-45
2023/04/21 05:13:33;;;;;;;25.40;18.42;;;10.60;62.40;;;;;;5033967;28;20048;-44
2023/04/21 05:16:03;;;;;;;25.08;18.77;;;10.60;62.60;;;;;;5030584;28;20052;-45
2023/04/21 05:18:30;;;;;;;26.58;20.20;;;10.60;62.90;;;;;;5049837;28;20381;-44
2023/04/21 05:20:56;;;;;;;24.33;18.92;;;10.70;63.00;;;;;;5039211;28;20076;-45
2023/04/21 05:23:23;;;;;;;25.17;18.33;;;10.70;62.90;;;;;;5033808;28;20096;-46
2023/04/21 05:25:50;;;;;;;28.80;19.85;;;10.70;62.90;;;;;;5045246;28;20049;-47
2023/04/21 05:28:17;;;;;;;26.27;20.50;;;10.70;63.00;;;;;;5050025;28;20033;-46
2023/04/21 05:30:43;;;;;;;25.77;19.10;;;10.80;63.20;;;;;;5038996;28;20057;-45
2023/04/21 05:33:10;;;;;;;25.15;20.13;;;10.80;63.30;;;;;;5034281;28;20037;-43
2023/04/21 05:35:37;;;;;;;24.52;18.85;;;10.80;63.50;;;;;;5016435;28;20053;-46
2023/04/21 05:38:04;;;;;;;25.45;19.17;;;10.80;63.60;;;;;;5049881;28;20033;-44
2023/04/21 05:40:31;;;;;;;26.55;20.70;;;10.90;63.70;;;;;;5049098;28;20393;-45
2023/04/21 05:42:58;;;;;;;26.88;20.85;;;10.90;63.80;;;;;;5013531;28;20052;-46
2023/04/21 05:45:25;;;;;;;27.52;21.88;;;10.90;63.70;;;;;;5035314;28;20029;-45
2023/04/21 05:47:51;;;;;;;27.63;21.70;;;11.00;63.90;;;;;;5051423;28;20412;-46
2023/04/21 05:50:18;;;;;;;27.50;21.52;;;11.00;63.80;;;;;;5053161;28;20493;-46
2023/04/21 05:52:48;;;;;;;31.00;21.58;;;11.00;63.90;;;;;;5032463;28;20038;-43
2023/04/21 05:55:14;;;;;;;30.10;21.25;;;11.10;64.40;;;;;;5047883;28;20041;-44
2023/04/21 05:57:41;;;;;;;26.30;21.90;;;11.10;64.20;;;;;;5053032;28;20044;-44
2023/04/21 06:00:11;;;;;;;31.75;21.88;;;11.10;64.20;;;;;;5036126;28;20072;-44
2023/04/21 06:02:37;;;;;;;27.05;21.80;;;11.10;64.50;;;;;;5044577;28;20044;-44
2023/04/21 06:05:06;;;;;;;28.85;21.90;;;11.10;64.60;;;;;;5033097;28;20527;-45
2023/04/21 06:07:36;;;;;;;28.42;22.52;;;11.20;64.40;;;;;;5049895;28;20033;-47
2023/04/21 06:10:06;;;;;;;32.35;22.88;;;11.20;64.50;;;;;;5052750;28;20090;-45
2023/04/21 06:12:32;;;;;;;31.00;23.90;;;11.20;64.50;;;;;;5035838;28;20045;-47
2023/04/21 06:14:59;;;;;;;29.63;23.30;;;11.20;64.60;;;;;;5022496;28;20404;-45
2023/04/21 06:17:26;;;;;;;29.23;23.75;;;11.30;64.80;;;;;;5052884;28;20037;-44
2023/04/21 06:19:52;;;;;;;29.95;23.80;;;11.30;64.80;;;;;;5052506;28;20041;-46
2023/04/21 06:22:19;;;;;;;28.95;22.23;;;11.30;64.90;;;;;;5040703;28;20516;-46
2023/04/21 06:24:46;;;;;;;27.75;21.20;;;11.30;64.90;;;;;;5047865;28;20044;-45
2023/04/21 06:27:13;;;;;;;28.15;22.98;;;11.30;64.90;;;;;;5052470;28;20041;-45
2023/04/21 06:29:41;;;;;;;29.83;23.42;;;11.40;65.00;;;;;;5052073;28;20133;-45
2023/04/21 06:32:11;;;;;;;31.42;22.83;;;11.40;65.10;;;;;;5031056;28;20068;-45
2023/04/21 06:34:38;;;;;;;29.73;23.20;;;11.40;65.50;;;;;;5032466;28;20064;-45
2023/04/21 06:37:05;;;;;;;29.75;22.35;;;11.50;65.30;;;;;;5047743;28;20041;-46
2023/04/21 06:39:31;;;;;;;32.33;24.45;;;11.50;65.30;;;;;;5051935;28;20200;-44
2023/04/21 06:41:58;;;;;;;30.75;24.35;;;11.50;65.40;;;;;;5051628;28;20120;-46
2023/04/21 06:44:25;;;;;;;32.90;24.98;;;11.50;65.40;;;;;;5011374;28;20180;-46
2023/04/21 06:46:52;;;;;;;33.03;24.23;;;11.60;65.60;;;;;;5045283;28;20493;-44
2023/04/21 06:49:19;;;;;;;30.45;23.20;;;11.60;65.60;;;;;;5017660;28;20131;-46
2023/04/21 06:51:46;;;;;;;31.77;23.80;;;11.60;65.60;;;;;;5051906;28;20041;-47
2023/04/21 06:54:12;;;;;;;29.98;24.45;;;11.70;65.70;;;;;;5033534;28;20068;-45
2023/04/21 06:56:42;;;;;;;31.42;24.10;;;11.70;65.70;;;;;;5050022;28;20505;-46
2023/04/21 06:59:09;;;;;;;32.92;23.83;;;11.70;65.60;;;;;;5051036;28;20041;-46
2023/04/21 07:01:35;;;;;;;32.60;24.17;;;11.70;65.60;;;;;;5042949;28;20044;-46
2023/04/21 07:04:04;;;;;;;29.33;23.38;;;11.80;65.70;;;;;;5030999;28;20059;-44
2023/04/21 07:06:31;;;;;;;30.63;24.23;;;11.80;65.80;;;;;;5043745;28;20467;-46
2023/04/21 07:08:58;;;;;;;31.50;24.23;;;11.90;65.90;;;;;;5051883;28;20037;-44
2023/04/21 07:11:27;;;;;;;30.60;24.23;;;11.90;65.90;;;;;;5043203;28;20493;-45
2023/04/21 07:13:54;;;;;;;33.45;24.52;;;12.00;65.80;;;;;;5027976;28;20041;-45
2023/04/21 07:16:21;;;;;;;31.17;22.83;;;12.00;66.00;;;;;;5048356;28;20048;-45
2023/04/21 07:18:48;;;;;;;28.88;21.88;;;12.00;65.70;;;;;;5051341;28;20045;-45
2023/04/21 07:21:14;;;;;;;25.38;20.70;;;12.00;65.60;;;;;;5045770;28;20046;-46
2023/04/21 07:23:41;;;;;;;27.52;20.80;;;12.10;65.40;;;;;;5034898;28;20084;-48
2023/04/21 07:26:07;;;;;;;24.15;19.60;;;12.10;65.30;;;;;;5039855;28;20056;-46
2023/04/21 07:28:34;;;;;;;24.02;19.83;;;12.10;65.20;;;;;;5051343;28;20041;-45
2023/04/21 07:31:01;;;;;;;24.40;19.15;;;12.20;65.10;;;;;;5031700;28;20038;-46
2023/04/21 07:33:29;;;;;;;24.02;18.73;;;12.20;65.00;;;;;;5026114;28;20041;-44
2023/04/21 07:35:57;;;;;;;24.30;19.35;;;12.20;64.90;;;;;;5028379;28;20453;-45
2023/04/21 07:38:24;;;;;;;24.92;19.75;;;12.30;64.90;;;;;;5050989;28;20493;-46
2023/04/21 07:40:50;;;;;;;22.65;18.25;;;12.30;65.00;;;;;;5049681;28;20049;-44
2023/04/21 07:43:18;;;;;;;22.10;18.42;;;12.30;64.80;;;;;;5041470;28;20043;-44
2023/04/21 07:45:45;;;;;;;23.38;18.42;;;12.40;64.90;;;;;;5028018;28;20099;-44
2023/04/21 07:48:12;;;;;;;24.30;18.42;;;12.40;64.90;;;;;;5010681;28;20037;-45
2023/04/21 07:50:38;;;;;;;22.52;17.67;;;12.40;64.70;;;;;;5037863;28;20116;-46
2023/04/21 07:53:07;;;;;;;20.98;17.23;;;12.50;64.80;;;;;;5034793;28;20033;-48
2023/04/21 07:55:36;;;;;;;20.60;17.08;;;12.50;65.00;;;;;;5040901;28;20041;-46
2023/04/21 07:58:03;;;;;;;19.83;15.93;;;12.60;64.80;;;;;;5034049;28;20412;-47
2023/04/21 08:00:30;;;;;;;25.90;17.45;;;12.60;64.90;;;;;;5030605;28;20046;-47
2023/04/21 08:02:57;;;;;;;23.42;18.10;;;12.60;65.00;;;;;;5038202;28;20037;-50
2023/04/21 08:05:28;;;;;;;23.02;17.80;;;12.70;64.90;;;;;;5026069;28;20041;-46
2023/04/21 08:08:00;;;;;;;21.95;17.80;;;12.80;64.90;;;;;;5023974;28;20076;-45
2023/04/21 08:10:27;;;;;;;23.00;17.60;;;12.80;64.70;;;;;;5029432;28;20533;-48
2023/04/21 08:12:54;;;;;;;21.50;18.02;;;12.80;64.90;;;;;;5046495;28;20521;-46
2023/04/21 08:15:21;;;;;;;23.65;18.20;;;12.80;64.90;;;;;;5028978;28;20080;-46
2023/04/21 08:17:49;;;;;;;24.50;18.92;;;12.90;65.60;;;;;;5049407;28;20208;-46
2023/04/21 08:20:16;;;;;;;24.60;18.23;;;13.00;65.10;;;;;;5032625;28;20033;-46
2023/04/21 08:22:43;;;;;;;23.60;18.95;;;13.00;64.90;;;;;;5039580;28;20049;-46
2023/04/21 08:25:12;;;;;;;20.70;18.02;;;13.00;64.80;;;;;;5038620;28;20037;-45
2023/04/21 08:27:42;;;;;;;25.42;18.88;;;13.10;64.90;;;;;;5038894;28;20053;-45
2023/04/21 08:30:09;;;;;;;24.88;19.67;;;13.20;65.00;;;;;;5036577;28;20563;-46
2023/04/21 08:32:36;;;;;;;26.40;19.73;;;13.20;64.90;;;;;;5032754;28;20045;-49
2023/04/21 08:35:03;;;;;;;23.27;18.35;;;13.20;65.10;;;;;;5028585;28;20461;-46
2023/04/21 08:37:30;;;;;;;23.77;18.55;;;13.30;65.10;;;;;;5046751;28;20133;-45
2023/04/21 08:39:56;;;;;;;22.80;16.88;;;13.40;65.60;;;;;;5041896;28;20041;-46
2023/04/21 08:42:23;;;;;;;23.50;18.33;;;13.50;65.30;;;;;;5033576;28;20037;-46
2023/04/21 08:44:50;;;;;;;21.63;17.95;;;13.50;65.20;;;;;;5043216;28;20056;-44
2023/04/21 08:47:19;;;;;;;22.27;17.42;;;13.60;65.00;;;;;;5049918;28;20049;-47
2023/04/21 08:49:48;;;;;;;21.00;17.25;;;13.70;65.00;;;;;;5028568;28;20452;-45
2023/04/21 08:52:16;;;;;;;23.45;17.30;;;13.70;65.00;;;;;;5028521;28;20045;-47
2023/04/21 08:54:43;;;;;;;23.50;17.42;;;13.80;64.80;;;;;;5047645;28;20056;-45
2023/04/21 08:57:09;;;;;;;21.77;17.20;;;13.90;65.00;;;;;;5018916;28;20045;-46
2023/04/21 08:59:39;;;;;;;21.15;16.20;;;14.00;65.10;;;;;;5033506;28;20045;-45
2023/04/21 09:02:11;;;;;;;19.35;16.05;;;14.00;64.70;;;;;;5036708;28;20041;-47
2023/04/21 09:04:39;;;;;;;22.27;17.13;;;14.10;64.40;;;;;;5028906;28;20045;-45
2023/04/21 09:07:07;;;;;;;20.17;16.40;;;14.10;64.80;;;;;;5040319;28;20488;-44
2023/04/21 09:09:51;;;;;;;17.60;14.95;;;14.20;64.80;;;;;;5037196;28;20065;-44
2023/04/21 09:12:18;;;;;;;19.83;15.38;;;14.30;65.20;;;;;;5027074;28;20078;-47
2023/04/21 09:14:45;;;;;;;16.98;14.00;;;14.40;64.40;;;;;;5039707;28;20045;-47
2023/04/21 09:17:15;;;;;;;18.40;14.48;;;14.50;64.40;;;;;;5044308;28;20049;-44
2023/04/21 09:19:44;;;;;;;16.52;14.02;;;14.60;64.50;;;;;;5039839;28;20048;-46
2023/04/21 09:22:16;;;;;;;20.27;15.57;;;14.70;64.60;;;;;;5038993;28;20498;-47
2023/04/21 09:24:55;;;;;;;18.13;14.73;;;14.90;64.30;;;;;;5039354;28;20044;-45
2023/04/21 09:27:22;;;;;;;18.80;14.70;;;15.00;63.70;;;;;;5043275;28;20489;-45
2023/04/21 09:29:48;;;;;;;18.50;14.98;;;15.10;62.80;;;;;;5049495;28;20033;-45
2023/04/21 09:32:19;;;;;;;17.80;15.07;;;15.20;62.70;;;;;;5030234;28;20034;-45
2023/04/21 09:34:46;;;;;;;18.70;15.60;;;15.30;62.90;;;;;;5030179;28;20053;-44
2023/04/21 09:37:13;;;;;;;20.27;16.85;;;15.30;62.10;;;;;;5042783;28;20408;-46
2023/04/21 09:39:48;;;;;;;19.48;15.73;;;15.40;62.30;;;;;;5037139;28;20049;-47
2023/04/21 09:42:31;;;;;;;19.50;16.15;;;15.50;61.90;;;;;;5032532;28;20127;-46
2023/04/21 09:44:59;;;;;;;17.25;15.25;;;15.60;61.80;;;;;;5030174;28;20087;-45
2023/04/21 09:47:34;;;;;;;20.02;15.80;;;15.60;62.00;;;;;;5049379;28;20549;-46
2023/04/21 09:50:04;;;;;;;19.85;16.30;;;15.70;61.90;;;;;;5019691;28;20110;-45
2023/04/21 09:52:34;;;;;;;19.55;15.35;;;15.70;61.50;;;;;;5046163;28;20038;-47
2023/04/21 09:55:04;;;;;;;15.15;13.50;;;15.80;61.10;;;;;;5033539;28;20041;-47
2023/04/21 09:57:33;;;;;;;17.55;14.88;;;15.80;60.70;;;;;;5053156;28;20064;-46
2023/04/21 10:00:07;;;;;;;17.80;14.77;;;15.80;60.60;;;;;;5052674;28;20405;-46
2023/04/21 10:02:35;;;;;;;16.80;14.90;;;15.90;60.80;;;;;;5028622;28;20041;-51
2023/04/21 10:05:05;;;;;;;16.00;13.63;;;15.90;60.80;;;;;;5026863;28;20037;-46
2023/04/21 10:07:32;;;;;;;17.77;13.25;;;15.90;60.80;;;;;;5039355;28;20044;-47
2023/04/21 10:09:59;;;;;;;14.15;11.73;;;16.00;61.00;;;;;;5031309;28;20042;-47
2023/04/21 10:12:26;;;;;;;15.57;12.85;;;16.00;60.60;;;;;;5027955;28;20045;-48
2023/04/21 10:14:54;;;;;;;14.73;12.73;;;16.00;60.20;;;;;;5037896;28;20055;-47
2023/04/21 10:17:23;;;;;;;15.85;13.13;;;16.20;60.30;;;;;;5033986;28;20041;-49
2023/04/21 10:19:57;;;;;;;12.68;11.30;;;16.20;60.20;;;;;;5049427;28;20045;-48
2023/04/21 10:22:32;;;;;;;13.32;11.27;;;16.30;60.20;;;;;;5030953;28;20095;-46
2023/04/21 10:25:01;;;;;;;13.52;11.00;;;16.50;60.50;;;;;;5034265;28;20512;-50
2023/04/21 10:27:36;;;;;;;11.60;9.55;;;16.60;60.10;;;;;;5033458;28;20042;-51
2023/04/21 10:30:22;;;;;;;11.38;8.75;;;16.70;59.70;;;;;;5035139;28;20456;-45
2023/04/21 10:33:02;;;;;;;10.65;9.55;;;16.90;58.90;;;;;;5027288;28;20509;-45
2023/04/21 10:35:57;;;;;;;9.82;8.82;;;17.00;59.10;;;;;;5028872;28;20494;-50
2023/04/21 10:38:40;;;;;;;11.15;9.07;;;17.10;57.70;;;;;;5014334;28;20045;-51
2023/04/21 10:41:28;;;;;;;10.85;8.65;;;17.20;57.00;;;;;;5030863;28;20557;-47
2023/04/21 10:44:08;;;;;;;10.65;8.85;;;17.30;57.50;;;;;;5032563;28;20045;-49
2023/04/21 10:46:43;;;;;;;10.85;8.88;;;17.40;57.10;;;;;;5031602;28;20033;-49
2023/04/21 10:49:40;;;;;;;9.82;8.65;;;17.50;57.10;;;;;;5022638;28;20414;-45
2023/04/21 10:52:08;;;;;;;11.43;8.93;;;17.60;57.50;;;;;;5028490;28;20041;-46
2023/04/21 10:54:42;;;;;;;9.55;8.55;;;17.70;56.70;;;;;;5038390;28;20033;-46
2023/04/21 10:57:10;;;;;;;9.20;7.85;;;17.80;56.10;;;;;;5022497;28;20045;-47
2023/04/21 10:59:38;;;;;;;10.77;8.68;;;17.90;55.80;;;;;;5039074;28;20390;-49
2023/04/21 11:02:11;;;;;;;9.43;7.95;;;18.00;55.70;;;;;;5023820;28;20029;-50
2023/04/21 11:04:40;;;;;;;9.43;7.95;;;18.10;55.10;;;;;;5023780;28;20073;-49
2023/04/21 11:07:09;;;;;;;11.25;8.20;;;18.20;55.40;;;;;;5032666;28;20034;-50
2023/04/21 11:09:38;;;;;;;7.80;7.00;;;18.30;54.40;;;;;;5039944;28;20049;-45
2023/04/21 11:12:06;;;;;;;8.98;7.43;;;18.40;54.70;;;;;;5043823;28;20052;-47
2023/04/21 11:14:35;;;;;;;8.38;7.35;;;18.50;54.00;;;;;;5026186;28;20042;-46
2023/04/21 11:17:03;;;;;;;8.60;7.72;;;18.50;54.30;;;;;;5025881;28;20045;-51
2023/04/21 11:19:33;;;;;;;9.90;8.45;;;18.60;53.70;;;;;;5024013;28;20041;-50
2023/04/21 11:22:00;;;;;;;9.25;7.90;;;18.70;53.00;;;;;;5026541;28;20099;-51
2023/04/21 11:24:26;;;;;;;10.15;8.30;;;18.70;52.60;;;;;;5045307;28;20033;-47
2023/04/21 11:26:53;;;;;;;9.20;8.15;;;18.70;52.70;;;;;;5044744;28;20052;-47
2023/04/21 11:29:20;;;;;;;11.73;9.77;;;18.70;52.90;;;;;;5037002;28;20043;-47
2023/04/21 11:31:48;;;;;;;10.55;8.98;;;18.70;52.80;;;;;;5025314;28;20103;-49
2023/04/21 11:34:18;;;;;;;11.13;8.93;;;18.70;52.50;;;;;;5032259;28;20050;-48
2023/04/21 11:36:46;;;;;;;9.32;8.43;;;18.80;52.10;;;;;;5040512;28;20051;-47
2023/04/21 11:39:18;;;;;;;10.35;8.98;;;18.80;52.30;;;;;;5039761;28;20112;-50
2023/04/21 11:41:49;;;;;;;8.93;8.02;;;18.90;52.30;;;;;;5041141;28;20421;-50
2023/04/21 11:44:37;;;;;;;11.85;9.80;;;18.90;52.70;;;;;;5038895;28;20044;-46
2023/04/21 11:47:11;;;;;;;10.93;9.80;;;19.00;52.20;;;;;;5037187;28;20525;-50
2023/04/21 11:49:46;;;;;;;12.77;11.07;;;19.00;51.70;;;;;;5038672;28;20452;-46
2023/04/21 11:52:34;;;;;;;11.57;8.70;;;19.10;51.70;;;;;;5032981;28;20057;-47
2023/04/21 11:55:10;;;;;;;12.00;10.43;;;19.20;51.80;;;;;;5033338;28;20072;-45
2023/04/21 11:57:39;;;;;;;13.60;11.07;;;19.30;51.60;;;;;;5047710;28;20119;-46
2023/04/21 12:00:12;;;;;;;14.77;12.25;;;19.40;52.00;;;;;;5025551;28;20048;-47
2023/04/21 12:02:39;;;;;;;12.45;11.00;;;19.40;51.20;;;;;;5028343;28;20061;-46
2023/04/21 12:05:09;;;;;;;13.43;10.55;;;19.50;51.10;;;;;;5029556;28;20405;-51
2023/04/21 12:07:38;;;;;;;12.82;11.02;;;19.60;50.90;;;;;;5037333;28;20052;-47
2023/04/21 12:10:13;;;;;;;13.15;10.93;;;19.60;50.90;;;;;;5050085;28;20040;-49
2023/04/21 12:12:41;;;;;;;14.20;10.27;;;19.70;50.10;;;;;;5035826;28;20045;-46
2023/04/21 12:15:10;;;;;;;11.45;9.85;;;19.70;50.10;;;;;;5034215;28;20041;-46
2023/04/21 12:17:44;;;;;;;9.68;8.43;;;19.70;50.30;;;;;;5049480;28;20049;-47
2023/04/21 12:20:11;;;;;;;9.75;8.10;;;19.80;50.30;;;;;;5050041;28;20067;-46
2023/04/21 12:22:38;;;;;;;9.40;8.40;;;19.80;50.30;;;;;;5026976;28;20687;-47
2023/04/21 12:25:05;;;;;;;12.65;10.15;;;19.90;50.50;;;;;;5042114;28;20044;-46
2023/04/21 12:27:32;;;;;;;12.30;9.95;;;19.90;50.00;;;;;;5049590;28;20468;-46
2023/04/21 12:29:59;;;;;;;10.65;8.95;;;20.20;50.20;;;;;;5042000;28;20043;-48
2023/04/21 12:32:26;;;;;;;10.00;8.90;;;20.10;50.00;;;;;;5032153;28;20402;-45
2023/04/21 12:34:52;;;;;;;10.98;8.88;;;20.30;49.40;;;;;;5029203;28;20041;-46
2023/04/21 12:37:19;;;;;;;13.45;9.43;;;20.30;49.00;;;;;;5044344;28;20033;-50